createdAt,value
2022-11-05T00:00:08.929Z,95987.66
2022-11-05T00:01:12.245Z,95984.72
2022-11-05T00:02:06.566Z,95986.56
2022-11-05T00:03:02.295Z,95987.78
2022-11-05T00:03:54.912Z,95986.25
2022-11-05T00:04:46.284Z,95986.56
2022-11-05T00:05:37.780Z,95987.78
2022-11-05T00:06:39.135Z,95985.31
2022-11-05T00:07:49.340Z,95987.34
2022-11-05T00:08:40.566Z,95990.78
2022-11-05T00:09:30.579Z,96000.44
2022-11-05T00:10:18.444Z,95989.84
2022-11-05T00:10:53.390Z,96000.28
2022-11-05T00:11:46.010Z,95992.28
2022-11-05T00:12:54.073Z,95992.78
2022-11-05T00:13:48.225Z,95995.59
2022-11-05T00:14:43.948Z,95989.34
2022-11-05T00:15:38.259Z,95999.31
2022-11-05T00:16:32.468Z,96002.75
2022-11-05T00:17:05.989Z,95995.72
2022-11-05T00:17:43.955Z,95994.16
2022-11-05T00:18:20.870Z,95999.91
2022-11-05T00:19:10.591Z,96001.03
2022-11-05T00:19:46.759Z,95997.91
2022-11-05T00:20:24.546Z,95995.41
2022-11-05T00:20:57.990Z,96001.66
2022-11-05T00:21:53.059Z,95999.75
2022-11-05T00:22:44.148Z,95998.38
2022-11-05T00:23:37.138Z,96001.50
2022-11-05T00:24:28.229Z,95994.16
2022-11-05T00:25:18.891Z,95999.31
2022-11-05T00:26:07.871Z,95999.63
2022-11-05T00:26:45.759Z,95997.28
2022-11-05T00:28:23.136Z,96001.78
2022-11-05T00:29:03.137Z,96001.34
2022-11-05T00:29:37.492Z,96000.25
2022-11-05T00:30:11.101Z,96005.38
2022-11-05T00:30:47.173Z,96003.00
2022-11-05T00:31:20.382Z,95999.44
2022-11-05T00:31:52.390Z,96009.13
2022-11-05T00:32:25.088Z,96001.63
2022-11-05T00:33:05.122Z,96013.03
2022-11-05T00:33:41.313Z,96008.97
2022-11-05T00:34:14.548Z,96010.97
2022-11-05T00:34:47.864Z,96002.25
2022-11-05T00:35:24.094Z,96012.06
2022-11-05T00:35:56.328Z,96013.16
2022-11-05T00:36:28.995Z,96010.66
2022-11-05T00:37:01.026Z,96015.66
2022-11-05T00:37:33.054Z,96008.13
2022-11-05T00:38:09.490Z,96007.38
2022-11-05T00:38:45.955Z,96013.31
2022-11-05T00:39:18.046Z,96014.53
2022-11-05T00:39:49.989Z,96009.88
2022-11-05T00:40:25.053Z,96006.00
2022-11-05T00:40:59.361Z,96007.91
2022-11-05T00:41:38.064Z,96005.72
2022-11-05T00:42:33.129Z,96025.84
2022-11-05T00:43:24.059Z,96011.34
2022-11-05T00:44:22.238Z,96016.97
2022-11-05T00:45:07.305Z,96023.19
2022-11-05T00:45:46.271Z,96016.78
2022-11-05T00:46:20.616Z,96017.25
2022-11-05T00:47:13.493Z,96021.16
2022-11-05T00:48:04.736Z,96022.53
2022-11-05T00:48:54.811Z,96021.28
2022-11-05T00:49:33.015Z,96024.75
2022-11-05T00:50:05.483Z,96015.81
2022-11-05T00:50:37.231Z,96026.59
2022-11-05T00:51:12.446Z,96023.16
2022-11-05T00:51:51.997Z,96026.88
2022-11-05T00:52:42.483Z,96025.19
2022-11-05T00:53:14.779Z,96033.16
2022-11-05T00:53:46.656Z,96029.25
2022-11-05T00:54:18.398Z,96033.59
2022-11-05T00:54:50.248Z,96029.53
2022-11-05T00:55:40.559Z,96031.75
2022-11-05T00:56:12.462Z,96025.81
2022-11-05T00:56:44.215Z,96037.03
2022-11-05T00:57:15.943Z,96023.50
2022-11-05T00:57:47.897Z,96030.63
2022-11-05T00:58:21.565Z,96036.75
2022-11-05T00:58:53.358Z,96041.09
2022-11-05T00:59:25.096Z,96035.63
2022-11-05T00:59:56.801Z,96038.31
2022-11-05T01:00:30.839Z,96044.72
2022-11-05T01:01:03.565Z,96032.06
2022-11-05T01:01:35.601Z,96035.50
2022-11-05T01:02:07.825Z,96040.97
2022-11-05T01:02:39.911Z,96034.69
2022-11-05T01:03:14.841Z,96035.94
2022-11-05T01:03:51.421Z,96047.03
2022-11-05T01:04:23.968Z,96033.16
2022-11-05T01:04:55.903Z,96048.13
2022-11-05T01:05:29.147Z,96037.84
2022-11-05T01:06:12.744Z,96047.69
2022-11-05T01:06:44.770Z,96036.91
2022-11-05T01:07:16.709Z,96048.94
2022-11-05T01:07:48.640Z,96043.00
2022-11-05T01:08:23.270Z,96032.84
2022-11-05T01:08:55.867Z,96039.38
2022-11-05T01:09:27.925Z,96038.59
2022-11-05T01:09:59.902Z,96041.72
2022-11-05T01:10:32.289Z,96038.78
2022-11-05T01:11:34.456Z,96036.91
2022-11-05T01:12:06.526Z,96035.00
2022-11-05T01:12:38.328Z,96044.69
2022-11-05T01:13:13.204Z,96041.91
2022-11-05T01:13:45.617Z,96042.34
2022-11-05T01:14:17.947Z,96031.88
2022-11-05T01:14:49.923Z,96035.00
2022-11-05T01:15:22.411Z,96039.22
2022-11-05T01:15:54.863Z,96038.59
2022-11-05T01:16:26.911Z,96046.13
2022-11-05T01:16:58.794Z,96049.09
2022-11-05T01:17:30.922Z,96047.19
2022-11-05T01:18:02.901Z,96052.03
2022-11-05T01:18:37.629Z,96047.22
2022-11-05T01:19:10.604Z,96055.16
2022-11-05T01:19:42.681Z,96053.09
2022-11-05T01:20:14.704Z,96041.56
2022-11-05T01:20:47.109Z,96043.59
2022-11-05T01:21:19.136Z,96051.72
2022-11-05T01:21:51.124Z,96046.94
2022-11-05T01:22:23.023Z,96050.50
2022-11-05T01:22:55.096Z,96054.22
2022-11-05T01:23:28.728Z,96047.50
2022-11-05T01:24:01.480Z,96051.88
2022-11-05T01:24:33.427Z,96053.59
2022-11-05T01:25:07.468Z,96044.56
2022-11-05T01:25:39.512Z,96050.16
2022-11-05T01:26:11.579Z,96052.03
2022-11-05T01:26:43.551Z,96059.81
2022-11-05T01:27:15.493Z,96052.81
2022-11-05T01:27:47.553Z,96055.31
2022-11-05T01:28:19.647Z,96057.81
2022-11-05T01:28:53.276Z,96051.56
2022-11-05T01:29:25.419Z,96053.91
2022-11-05T01:29:57.273Z,96062.69
2022-11-05T01:30:29.307Z,96064.22
2022-11-05T01:31:01.405Z,96053.44
2022-11-05T01:31:33.347Z,96059.06
2022-11-05T01:32:05.567Z,96060.31
2022-11-05T01:32:38.140Z,96063.59
2022-11-05T01:33:10.528Z,96062.66
2022-11-05T01:33:42.793Z,96063.44
2022-11-05T01:34:14.719Z,96062.66
2022-11-05T01:34:46.665Z,96066.53
2022-11-05T01:35:19.297Z,96058.44
2022-11-05T01:35:51.839Z,96072.34
2022-11-05T01:36:23.919Z,96063.13
2022-11-05T01:36:55.885Z,96058.56
2022-11-05T01:37:27.797Z,96059.03
2022-11-05T01:37:59.957Z,96061.06
2022-11-05T01:38:32.062Z,96059.81
2022-11-05T01:39:04.341Z,96060.13
2022-11-05T01:39:36.498Z,96061.22
2022-11-05T01:40:12.080Z,96073.09
2022-11-05T01:40:44.502Z,96067.03
2022-11-05T01:41:16.403Z,96067.63
2022-11-05T01:41:48.371Z,96071.25
2022-11-05T01:42:24.040Z,96063.13
2022-11-05T01:42:56.161Z,96076.53
2022-11-05T01:43:46.369Z,96075.47
2022-11-05T01:44:52.337Z,96072.66
2022-11-05T01:45:28.179Z,96069.06
2022-11-05T01:46:00.673Z,96063.13
2022-11-05T01:46:32.560Z,96063.72
2022-11-05T01:47:04.370Z,96069.03
2022-11-05T01:47:51.447Z,96072.63
2022-11-05T01:48:33.012Z,96071.56
2022-11-05T01:49:17.462Z,96076.41
2022-11-05T01:49:49.330Z,96076.53
2022-11-05T01:50:40.064Z,96079.06
2022-11-05T01:51:18.760Z,96077.94
2022-11-05T01:51:51.429Z,96079.19
2022-11-05T01:52:24.739Z,96080.91
2022-11-05T01:53:07.757Z,96081.22
2022-11-05T01:53:44.584Z,96083.41
2022-11-05T01:54:21.049Z,96077.31
2022-11-05T01:54:53.131Z,96078.88
2022-11-05T01:55:28.758Z,96074.97
2022-11-05T01:56:16.778Z,96077.75
2022-11-05T01:57:03.996Z,96077.00
2022-11-05T01:57:35.873Z,96074.94
2022-11-05T01:58:12.193Z,96075.09
2022-11-05T01:59:10.317Z,96082.31
2022-11-05T01:59:48.812Z,96076.22
2022-11-05T02:00:20.681Z,96076.06
2022-11-05T02:00:53.115Z,96078.25
2022-11-05T02:01:25.115Z,96075.41
2022-11-05T02:01:57.550Z,96082.44
2022-11-05T02:02:31.228Z,96070.88
2022-11-05T02:03:03.250Z,96070.09
2022-11-05T02:03:35.761Z,96075.69
2022-11-05T02:04:12.213Z,96078.81
2022-11-05T02:04:53.977Z,96073.81
2022-11-05T02:05:25.996Z,96076.63
2022-11-05T02:06:00.563Z,96076.31
2022-11-05T02:06:36.883Z,96068.19
2022-11-05T02:07:10.310Z,96079.44
2022-11-05T02:07:46.484Z,96075.84
2022-11-05T02:08:50.679Z,96085.25
2022-11-05T02:09:29.936Z,96079.00
2022-11-05T02:10:11.104Z,96083.97
2022-11-05T02:10:44.897Z,96080.88
2022-11-05T02:11:18.369Z,96078.66
2022-11-05T02:11:51.793Z,96080.38
2022-11-05T02:12:24.190Z,96077.75
2022-11-05T02:12:55.918Z,96080.88
2022-11-05T02:13:27.684Z,96089.63
2022-11-05T02:14:00.145Z,96077.91
2022-11-05T02:14:32.020Z,96079.31
2022-11-05T02:15:04.246Z,96086.03
2022-11-05T02:15:51.023Z,96084.31
2022-11-05T02:16:29.863Z,96083.41
2022-11-05T02:17:25.403Z,96081.38
2022-11-05T02:18:34.063Z,96082.31
2022-11-05T02:19:34.721Z,96077.63
2022-11-05T02:20:19.062Z,96089.00
2022-11-05T02:21:01.421Z,96078.53
2022-11-05T02:21:54.909Z,96086.94
2022-11-05T02:22:54.930Z,96083.34
2022-11-05T02:24:25.124Z,96080.22
2022-11-05T02:25:35.496Z,96073.66
2022-11-05T02:26:28.486Z,96088.38
2022-11-05T02:27:17.175Z,96087.41
2022-11-05T02:28:00.267Z,96091.16
2022-11-05T02:29:06.485Z,96087.69
2022-11-05T02:30:05.595Z,96087.69
2022-11-05T02:30:56.399Z,96080.22
2022-11-05T02:31:47.458Z,96078.03
2022-11-05T02:32:40.209Z,96071.97
2022-11-05T02:33:17.997Z,96081.19
2022-11-05T02:33:57.101Z,96083.81
2022-11-05T02:34:50.252Z,96077.38
2022-11-05T02:35:34.156Z,96086.28
2022-11-05T02:36:27.863Z,96082.06
2022-11-05T02:37:20.382Z,96082.41
2022-11-05T02:37:59.501Z,96080.19
2022-11-05T02:38:50.599Z,96084.56
2022-11-05T02:39:41.144Z,96086.47
2022-11-05T02:40:21.723Z,96083.84
2022-11-05T02:41:05.473Z,96088.06
2022-11-05T02:41:45.388Z,96090.06
2022-11-05T02:42:38.557Z,96094.78
2022-11-05T02:43:36.310Z,96089.28
2022-11-05T02:44:35.483Z,96086.63
2022-11-05T02:45:07.219Z,96084.28
2022-11-05T02:46:01.547Z,96084.59
2022-11-05T02:46:37.013Z,96087.88
2022-11-05T02:47:23.910Z,96082.41
2022-11-05T02:48:13.602Z,96088.94
2022-11-05T02:49:23.102Z,96088.34
2022-11-05T02:50:13.081Z,96081.47
2022-11-05T02:51:23.869Z,96087.66
2022-11-05T02:51:58.640Z,96090.84
2022-11-05T02:52:37.908Z,96090.25
2022-11-05T02:53:12.772Z,96095.34
2022-11-05T02:54:02.209Z,96093.50
2022-11-05T02:54:51.632Z,96097.84
2022-11-05T02:55:33.705Z,96096.72
2022-11-05T02:56:25.684Z,96089.22
2022-11-05T02:57:00.266Z,96098.75
2022-11-05T02:57:36.169Z,96094.22
2022-11-05T02:58:08.568Z,96095.47
2022-11-05T02:58:40.362Z,96090.63
2022-11-05T02:59:12.189Z,96099.22
2022-11-05T02:59:43.994Z,96100.47
2022-11-05T03:00:55.331Z,96092.84
2022-11-05T03:01:27.173Z,96097.66
2022-11-05T03:02:01.071Z,96100.91
2022-11-05T03:02:33.308Z,96101.44
2022-11-05T03:03:09.707Z,96101.63
2022-11-05T03:03:48.817Z,96104.28
2022-11-05T03:04:23.617Z,96095.34
2022-11-05T03:04:55.664Z,96096.44
2022-11-05T03:05:53.503Z,96095.31
2022-11-05T03:06:34.370Z,96097.34
2022-11-05T03:07:30.030Z,96103.81
2022-11-05T03:08:11.278Z,96109.41
2022-11-05T03:08:55.056Z,96105.19
2022-11-05T03:09:51.332Z,96092.66
2022-11-05T03:10:30.674Z,96091.31
2022-11-05T03:11:13.870Z,96095.72
2022-11-05T03:11:54.793Z,96099.59
2022-11-05T03:12:36.987Z,96090.34
2022-11-05T03:13:25.936Z,96098.94
2022-11-05T03:14:25.235Z,96096.44
2022-11-05T03:15:15.840Z,96097.97
2022-11-05T03:15:52.323Z,96096.88
2022-11-05T03:16:39.301Z,96099.34
2022-11-05T03:17:21.388Z,96095.00
2022-11-05T03:17:55.961Z,96101.41
2022-11-05T03:18:58.895Z,96097.50
2022-11-05T03:19:44.482Z,96098.25
2022-11-05T03:20:42.172Z,96102.47
2022-11-05T03:21:23.636Z,96099.22
2022-11-05T03:22:02.807Z,96101.59
2022-11-05T03:22:41.426Z,96100.03
2022-11-05T03:23:37.749Z,96094.44
2022-11-05T03:24:15.823Z,96103.59
2022-11-05T03:24:52.440Z,96108.13
2022-11-05T03:25:28.183Z,96106.56
2022-11-05T03:26:07.700Z,96110.19
2022-11-05T03:26:49.168Z,96106.50
2022-11-05T03:27:26.815Z,96106.44
2022-11-05T03:28:02.964Z,96111.75
2022-11-05T03:28:37.906Z,96104.38
2022-11-05T03:29:15.786Z,96111.13
2022-11-05T03:29:52.071Z,96106.69
2022-11-05T03:30:25.470Z,96110.94
2022-11-05T03:30:59.788Z,96108.59
2022-11-05T03:31:33.940Z,96109.84
2022-11-05T03:32:09.318Z,96109.81
2022-11-05T03:32:46.338Z,96112.19
2022-11-05T03:33:23.846Z,96103.47
2022-11-05T03:33:57.939Z,96110.16
2022-11-05T03:34:37.370Z,96112.66
2022-11-05T03:35:16.141Z,96115.31
2022-11-05T03:35:53.971Z,96118.13
2022-11-05T03:36:33.791Z,96121.22
2022-11-05T03:37:08.105Z,96115.44
2022-11-05T03:37:43.265Z,96108.88
2022-11-05T03:38:24.038Z,96110.56
2022-11-05T03:38:57.148Z,96109.50
2022-11-05T03:39:37.698Z,96117.78
2022-11-05T03:40:12.165Z,96124.50
2022-11-05T03:40:47.556Z,96116.34
2022-11-05T03:41:22.180Z,96113.44
2022-11-05T03:41:55.480Z,96117.16
2022-11-05T03:42:32.677Z,96117.63
2022-11-05T03:43:08.321Z,96117.81
2022-11-05T03:43:45.140Z,96117.94
2022-11-05T03:44:23.659Z,96117.63
2022-11-05T03:45:00.096Z,96126.53
2022-11-05T03:45:37.624Z,96128.91
2022-11-05T03:46:16.015Z,96125.78
2022-11-05T03:46:49.612Z,96128.47
2022-11-05T03:47:26.293Z,96136.13
2022-11-05T03:48:01.757Z,96123.47
2022-11-05T03:48:40.483Z,96139.13
2022-11-05T03:49:19.050Z,96138.78
2022-11-05T03:50:22.520Z,96142.84
2022-11-05T03:51:04.294Z,96136.44
2022-11-05T03:51:39.497Z,96132.66
2022-11-05T03:52:18.030Z,96142.81
2022-11-05T03:52:56.210Z,96139.91
2022-11-05T03:53:35.849Z,96147.19
2022-11-05T03:54:08.104Z,96144.84
2022-11-05T03:54:40.663Z,96141.88
2022-11-05T03:55:13.071Z,96149.25
2022-11-05T03:56:01.279Z,96146.88
2022-11-05T03:56:44.822Z,96151.69
2022-11-05T03:57:25.051Z,96146.56
2022-11-05T03:57:59.377Z,96154.22
2022-11-05T03:58:32.213Z,96156.41
2022-11-05T03:59:06.822Z,96155.91
2022-11-05T03:59:42.396Z,96147.16
2022-11-05T04:00:14.493Z,96158.25
2022-11-05T04:00:47.482Z,96158.75
2022-11-05T04:01:19.506Z,96167.13
2022-11-05T04:01:51.633Z,96155.59
2022-11-05T04:02:28.580Z,96164.03
2022-11-05T04:03:00.575Z,96165.13
2022-11-05T04:03:36.526Z,96164.38
2022-11-05T04:04:09.834Z,96163.88
2022-11-05T04:04:42.072Z,96157.94
2022-11-05T04:05:13.885Z,96159.66
2022-11-05T04:06:05.933Z,96163.25
2022-11-05T04:06:56.112Z,96161.34
2022-11-05T04:07:47.040Z,96165.41
2022-11-05T04:08:37.863Z,96161.16
2022-11-05T04:09:28.961Z,96159.31
2022-11-05T04:10:19.484Z,96169.00
2022-11-05T04:11:10.137Z,96162.75
2022-11-05T04:12:00.173Z,96166.66
2022-11-05T04:12:57.961Z,96159.47
2022-11-05T04:13:29.779Z,96169.47
2022-11-05T04:14:01.556Z,96167.44
2022-11-05T04:14:33.313Z,96165.06
2022-11-05T04:15:05.464Z,96162.91
2022-11-05T04:15:56.147Z,96164.91
2022-11-05T04:16:46.861Z,96171.28
2022-11-05T04:17:18.704Z,96166.75
2022-11-05T04:17:50.668Z,96167.06
2022-11-05T04:18:22.766Z,96169.59
2022-11-05T04:18:54.485Z,96168.16
2022-11-05T04:19:44.641Z,96168.16
2022-11-05T04:20:55.320Z,96167.56
2022-11-05T04:21:45.917Z,96166.13
2022-11-05T04:22:36.211Z,96170.22
2022-11-05T04:23:26.512Z,96174.16
2022-11-05T04:24:10.369Z,96172.91
2022-11-05T04:24:42.293Z,96176.34
2022-11-05T04:25:17.063Z,96171.00
2022-11-05T04:25:48.962Z,96181.00
2022-11-05T04:26:23.319Z,96168.34
2022-11-05T04:26:55.245Z,96175.41
2022-11-05T04:27:26.987Z,96177.44
2022-11-05T04:28:00.603Z,96179.91
2022-11-05T04:28:52.364Z,96176.19
2022-11-05T04:29:42.661Z,96175.28
2022-11-05T04:30:18.779Z,96180.13
2022-11-05T04:30:50.597Z,96182.66
2022-11-05T04:31:22.297Z,96181.66
2022-11-05T04:31:54.334Z,96184.31
2022-11-05T04:32:26.149Z,96182.91
2022-11-05T04:32:59.704Z,96180.25
2022-11-05T04:33:31.787Z,96183.06
2022-11-05T04:34:03.645Z,96176.34
2022-11-05T04:34:35.483Z,96185.56
2022-11-05T04:35:07.320Z,96181.19
2022-11-05T04:35:47.312Z,96188.13
2022-11-05T04:36:19.602Z,96183.91
2022-11-05T04:36:52.433Z,96180.31
2022-11-05T04:37:24.344Z,96190.75
2022-11-05T04:37:56.263Z,96184.50
2022-11-05T04:38:28.064Z,96190.78
2022-11-05T04:38:59.921Z,96184.69
2022-11-05T04:39:31.714Z,96185.75
2022-11-05T04:40:03.689Z,96177.31
2022-11-05T04:40:36.774Z,96179.69
2022-11-05T04:41:16.907Z,96182.50
2022-11-05T04:41:48.905Z,96184.88
2022-11-05T04:42:20.822Z,96190.00
2022-11-05T04:42:54.778Z,96191.59
2022-11-05T04:43:26.521Z,96193.13
2022-11-05T04:43:58.298Z,96191.41
2022-11-05T04:44:30.219Z,96183.13
2022-11-05T04:45:02.005Z,96181.53
2022-11-05T04:45:36.217Z,96186.84
2022-11-05T04:46:08.553Z,96183.13
2022-11-05T04:46:40.357Z,96187.34
2022-11-05T04:47:12.226Z,96190.00
2022-11-05T04:47:44.156Z,96186.06
2022-11-05T04:48:16.030Z,96184.22
2022-11-05T04:48:47.845Z,96187.78
2022-11-05T04:49:19.643Z,96180.59
2022-11-05T04:49:51.470Z,96188.88
2022-11-05T04:50:23.892Z,96177.47
2022-11-05T04:50:55.685Z,96178.59
2022-11-05T04:51:27.892Z,96180.94
2022-11-05T04:51:59.647Z,96183.91
2022-11-05T04:52:31.401Z,96181.56
2022-11-05T04:53:03.372Z,96186.53
2022-11-05T04:53:35.246Z,96187.47
2022-11-05T04:54:07.442Z,96192.47
2022-11-05T04:54:39.209Z,96187.47
2022-11-05T04:55:10.958Z,96197.00
2022-11-05T04:55:42.699Z,96188.69
2022-11-05T04:56:25.811Z,96186.53
2022-11-05T04:56:57.688Z,96184.63
2022-11-05T04:57:29.440Z,96182.47
2022-11-05T04:58:01.226Z,96186.34
2022-11-05T04:58:33.060Z,96184.94
2022-11-05T04:59:04.775Z,96179.63
2022-11-05T04:59:36.623Z,96181.97
2022-11-05T05:00:09.740Z,96189.63
2022-11-05T05:00:41.601Z,96188.88
2022-11-05T05:01:15.896Z,96198.41
2022-11-05T05:01:52.757Z,96187.16
2022-11-05T05:02:24.824Z,96191.53
2022-11-05T05:02:56.666Z,96193.25
2022-11-05T05:03:28.495Z,96192.78
2022-11-05T05:04:00.345Z,96192.00
2022-11-05T05:04:32.136Z,96188.25
2022-11-05T05:05:04.554Z,96197.47
2022-11-05T05:05:36.349Z,96187.28
2022-11-05T05:06:08.907Z,96202.78
2022-11-05T05:06:40.626Z,96190.44
2022-11-05T05:07:12.455Z,96198.22
2022-11-05T05:07:44.336Z,96188.66
2022-11-05T05:08:16.152Z,96193.19
2022-11-05T05:08:49.485Z,96188.69
2022-11-05T05:09:21.243Z,96191.66
2022-11-05T05:09:54.876Z,96188.88
2022-11-05T05:10:26.618Z,96192.16
2022-11-05T05:11:04.777Z,96198.69
2022-11-05T05:11:36.525Z,96196.84
2022-11-05T05:12:08.280Z,96195.56
2022-11-05T05:12:40.226Z,96200.56
2022-11-05T05:13:12.329Z,96196.19
2022-11-05T05:13:44.346Z,96201.97
2022-11-05T05:14:16.191Z,96204.63
2022-11-05T05:14:49.167Z,96204.63
2022-11-05T05:15:21.137Z,96205.25
2022-11-05T05:15:52.985Z,96204.63
2022-11-05T05:16:27.655Z,96201.19
2022-11-05T05:16:59.626Z,96207.78
2022-11-05T05:17:31.883Z,96207.81
2022-11-05T05:18:04.210Z,96208.41
2022-11-05T05:18:38.150Z,96209.50
2022-11-05T05:19:18.471Z,96207.47
2022-11-05T05:20:12.050Z,96205.09
2022-11-05T05:21:02.902Z,96209.00
2022-11-05T05:21:43.555Z,96194.63
2022-11-05T05:22:15.550Z,96205.13
2022-11-05T05:22:54.800Z,96206.38
2022-11-05T05:23:30.113Z,96207.63
2022-11-05T05:24:02.555Z,96207.47
2022-11-05T05:24:36.740Z,96207.59
2022-11-05T05:25:09.104Z,96203.38
2022-11-05T05:25:53.868Z,96217.88
2022-11-05T05:26:31.016Z,96214.31
2022-11-05T05:27:03.250Z,96211.16
2022-11-05T05:27:37.888Z,96209.78
2022-11-05T05:28:12.131Z,96204.75
2022-11-05T05:28:44.520Z,96208.16
2022-11-05T05:29:17.911Z,96203.34
2022-11-05T05:29:53.171Z,96217.91
2022-11-05T05:30:26.957Z,96207.28
2022-11-05T05:31:00.914Z,96212.59
2022-11-05T05:31:34.079Z,96219.94
2022-11-05T05:32:07.326Z,96216.50
2022-11-05T05:32:39.661Z,96209.16
2022-11-05T05:33:12.037Z,96212.31
2022-11-05T05:33:44.617Z,96227.44
2022-11-05T05:34:19.493Z,96219.78
2022-11-05T05:34:54.673Z,96224.75
2022-11-05T05:35:29.493Z,96220.53
2022-11-05T05:36:11.455Z,96216.63
2022-11-05T05:36:43.968Z,96213.03
2022-11-05T05:37:16.705Z,96220.41
2022-11-05T05:37:55.903Z,96220.25
2022-11-05T05:38:29.479Z,96217.41
2022-11-05T05:39:11.049Z,96218.69
2022-11-05T05:39:45.130Z,96214.94
2022-11-05T05:40:17.400Z,96222.28
2022-11-05T05:40:50.572Z,96213.22
2022-11-05T05:41:22.821Z,96219.91
2022-11-05T05:41:57.342Z,96223.66
2022-11-05T05:42:29.550Z,96223.66
2022-11-05T05:43:01.750Z,96224.94
2022-11-05T05:43:34.554Z,96229.75
2022-11-05T05:44:06.978Z,96222.91
2022-11-05T05:44:45.164Z,96231.03
2022-11-05T05:45:17.439Z,96225.22
2022-11-05T05:45:49.633Z,96228.31
2022-11-05T05:46:22.101Z,96224.44
2022-11-05T05:46:56.683Z,96227.41
2022-11-05T05:47:28.964Z,96229.28
2022-11-05T05:48:03.715Z,96228.50
2022-11-05T05:48:42.346Z,96228.66
2022-11-05T05:49:14.937Z,96230.22
2022-11-05T05:49:47.268Z,96233.97
2022-11-05T05:50:21.946Z,96236.81
2022-11-05T05:51:02.009Z,96246.81
2022-11-05T05:51:34.313Z,96240.56
2022-11-05T05:52:06.590Z,96237.75
2022-11-05T05:52:38.810Z,96246.03
2022-11-05T05:53:11.165Z,96247.56
2022-11-05T05:53:43.409Z,96239.47
2022-11-05T05:54:15.818Z,96240.22
2022-11-05T05:54:47.975Z,96244.00
2022-11-05T05:55:23.355Z,96243.03
2022-11-05T05:55:56.525Z,96246.19
2022-11-05T05:56:28.633Z,96244.66
2022-11-05T05:57:02.943Z,96245.44
2022-11-05T05:57:37.263Z,96247.13
2022-11-05T05:58:09.516Z,96246.81
2022-11-05T05:58:44.636Z,96240.53
2022-11-05T05:59:16.885Z,96249.28
2022-11-05T05:59:48.894Z,96251.75
2022-11-05T06:00:25.445Z,96236.31
2022-11-05T06:01:05.273Z,96245.84
2022-11-05T06:01:47.098Z,96242.25
2022-11-05T06:02:19.632Z,96251.16
2022-11-05T06:02:52.149Z,96246.97
2022-11-05T06:03:24.704Z,96251.16
2022-11-05T06:03:59.546Z,96243.47
2022-11-05T06:04:32.028Z,96253.94
2022-11-05T06:05:05.437Z,96249.56
2022-11-05T06:05:40.177Z,96245.34
2022-11-05T06:06:13.714Z,96247.84
2022-11-05T06:06:47.100Z,96248.63
2022-11-05T06:07:19.099Z,96263.00
2022-11-05T06:07:58.097Z,96247.41
2022-11-05T06:08:30.688Z,96254.91
2022-11-05T06:09:02.831Z,96251.00
2022-11-05T06:09:35.013Z,96251.00
2022-11-05T06:10:07.461Z,96261.16
2022-11-05T06:10:39.549Z,96252.84
2022-11-05T06:11:11.922Z,96253.00
2022-11-05T06:11:44.070Z,96244.59
2022-11-05T06:12:15.938Z,96256.78
2022-11-05T06:12:47.904Z,96251.59
2022-11-05T06:13:20.195Z,96260.31
2022-11-05T06:13:52.472Z,96262.34
2022-11-05T06:14:34.154Z,96266.28
2022-11-05T06:15:15.427Z,96255.72
2022-11-05T06:16:15.863Z,96270.91
2022-11-05T06:16:47.875Z,96253.06
2022-11-05T06:17:19.978Z,96261.00
2022-11-05T06:17:52.095Z,96265.53
2022-11-05T06:18:24.123Z,96253.31
2022-11-05T06:18:56.445Z,96264.13
2022-11-05T06:19:29.309Z,96258.16
2022-11-05T06:20:01.569Z,96262.34
2022-11-05T06:20:33.672Z,96257.06
2022-11-05T06:21:08.039Z,96257.97
2022-11-05T06:21:40.046Z,96252.84
2022-11-05T06:22:12.133Z,96261.47
2022-11-05T06:22:44.586Z,96263.34
2022-11-05T06:23:16.745Z,96264.28
2022-11-05T06:23:49.828Z,96266.47
2022-11-05T06:24:21.909Z,96268.81
2022-11-05T06:24:54.029Z,96266.63
2022-11-05T06:25:26.885Z,96267.75
2022-11-05T06:27:59.915Z,96274.00
2022-11-05T06:28:33.546Z,96272.59
2022-11-05T06:29:05.725Z,96274.16
2022-11-05T06:29:37.503Z,96273.53
2022-11-05T06:30:09.937Z,96277.31
2022-11-05T06:30:41.821Z,96279.78
2022-11-05T06:31:15.070Z,96278.69
2022-11-05T06:31:47.077Z,96282.91
2022-11-05T06:32:18.934Z,96282.88
2022-11-05T06:32:50.803Z,96284.94
2022-11-05T06:33:22.781Z,96277.75
2022-11-05T06:33:54.627Z,96276.84
2022-11-05T06:34:26.478Z,96285.72
2022-11-05T06:34:58.425Z,96287.44
2022-11-05T06:35:30.877Z,96283.06
2022-11-05T06:36:03.667Z,96290.59
2022-11-05T06:36:35.410Z,96295.28
2022-11-05T06:37:07.346Z,96295.13
2022-11-05T06:37:39.610Z,96289.50
2022-11-05T06:38:11.335Z,96299.66
2022-11-05T06:38:43.205Z,96298.72
2022-11-05T06:39:15.073Z,96292.78
2022-11-05T06:39:46.956Z,96301.19
2022-11-05T06:40:18.820Z,96294.50
2022-11-05T06:40:50.645Z,96302.94
2022-11-05T06:41:22.513Z,96306.03
2022-11-05T06:42:17.127Z,96299.47
2022-11-05T06:42:46.409Z,96298.84
2022-11-05T06:43:18.344Z,96296.50
2022-11-05T06:43:50.241Z,96296.00
2022-11-05T06:44:22.544Z,96293.97
2022-11-05T06:44:54.301Z,96302.44
2022-11-05T06:45:26.417Z,96299.16
2022-11-05T06:46:01.297Z,96296.50
2022-11-05T06:46:33.150Z,96300.25
2022-11-05T06:47:05.064Z,96301.38
2022-11-05T06:47:36.826Z,96306.22
2022-11-05T06:48:08.650Z,96306.81
2022-11-05T06:48:40.658Z,96304.94
2022-11-05T06:49:12.416Z,96298.66
2022-11-05T06:49:44.364Z,96298.34
2022-11-05T06:50:16.233Z,96302.31
2022-11-05T06:50:48.229Z,96302.31
2022-11-05T06:51:20.076Z,96308.69
2022-11-05T06:51:52.232Z,96309.03
2022-11-05T06:52:24.036Z,96309.97
2022-11-05T06:53:00.676Z,96303.69
2022-11-05T06:53:32.825Z,96305.41
2022-11-05T06:54:04.603Z,96298.53
2022-11-05T06:54:36.506Z,96307.63
2022-11-05T06:55:08.736Z,96309.31
2022-11-05T06:55:41.098Z,96306.03
2022-11-05T06:56:13.009Z,96300.22
2022-11-05T06:56:44.886Z,96301.31
2022-11-05T06:57:16.868Z,96304.28
2022-11-05T06:57:48.613Z,96307.88
2022-11-05T06:58:20.866Z,96304.31
2022-11-05T06:58:52.615Z,96307.59
2022-11-05T06:59:24.473Z,96308.50
2022-11-05T07:00:01.343Z,96308.81
2022-11-05T07:00:35.327Z,96306.66
2022-11-05T07:01:10.117Z,96310.09
2022-11-05T07:01:42.062Z,96308.38
2022-11-05T07:02:14.270Z,96316.34
2022-11-05T07:02:46.828Z,96313.06
2022-11-05T07:03:18.853Z,96313.53
2022-11-05T07:03:50.738Z,96315.06
2022-11-05T07:04:22.696Z,96316.78
2022-11-05T07:04:54.470Z,96311.47
2022-11-05T07:05:26.406Z,96314.44
2022-11-05T07:06:00.646Z,96319.13
2022-11-05T07:06:36.845Z,96316.94
2022-11-05T07:07:09.043Z,96319.53
2022-11-05T07:07:42.124Z,96321.31
2022-11-05T07:08:14.169Z,96323.66
2022-11-05T07:08:46.151Z,96324.44
2022-11-05T07:09:17.915Z,96324.91
2022-11-05T07:09:52.374Z,96327.88
2022-11-05T07:10:24.197Z,96319.25
2022-11-05T07:10:56.084Z,96328.50
2022-11-05T07:11:27.918Z,96327.38
2022-11-05T07:11:59.766Z,96335.19
2022-11-05T07:12:31.533Z,96325.50
2022-11-05T07:13:07.778Z,96333.94
2022-11-05T07:13:40.357Z,96330.66
2022-11-05T07:14:12.235Z,96333.81
2022-11-05T07:14:44.080Z,96338.53
2022-11-05T07:15:16.143Z,96341.81
2022-11-05T07:15:47.872Z,96339.47
2022-11-05T07:16:19.691Z,96340.72
2022-11-05T07:16:51.479Z,96341.50
2022-11-05T07:17:23.618Z,96341.03
2022-11-05T07:17:58.836Z,96342.63
2022-11-05T07:18:30.808Z,96340.88
2022-11-05T07:19:02.780Z,96343.22
2022-11-05T07:19:34.902Z,96348.06